Terminal Aerodrome Forecast
Issued by NWS

Home | Current Version | Previous Version | Text Only | Print | Product List | Glossary On
Versions: 1 2 3 4 5 6 7 8 9 10 11 12 13 14 15 16
234
FTUS41 KBTV 171835 AAC
TAFMPV
TAF AMD
KMPV 171835Z 1719/1818 00000KT 2SM -SN BR SCT006 OVC040
      TEMPO 1719/1722 1SM -SN BR BKN007 OVC015
     FM172200 00000KT 3SM BR VCSH BKN030
     FM180000 00000KT 4SM BR BKN035
     FM180400 VRB03KT 6SM BR BKN090
     FM180500 00000KT P6SM SCT120=

USA.gov is the U.S. government's official web portal to all federal, state and local government web resources and services.